createdAt,value
2018-03-31T00:00:44.841Z,96.60
2018-03-31T00:03:13.296Z,96.40
2018-03-31T00:05:41.055Z,96.40
2018-03-31T00:08:08.836Z,96.50
2018-03-31T00:10:36.594Z,96.50
2018-03-31T00:13:04.359Z,96.40
2018-03-31T00:15:32.127Z,96.40
2018-03-31T00:17:59.892Z,96.30
2018-03-31T00:20:27.652Z,96.50
2018-03-31T00:22:55.412Z,96.60
2018-03-31T00:25:23.198Z,96.70
2018-03-31T00:27:50.965Z,96.70
2018-03-31T00:30:18.726Z,96.80
2018-03-31T00:32:46.512Z,96.90
2018-03-31T00:35:15.040Z,96.50
2018-03-31T00:37:43.575Z,96.60
2018-03-31T00:40:11.348Z,96.60
2018-03-31T00:42:39.877Z,96.50
2018-03-31T00:45:08.461Z,96.70
2018-03-31T00:47:36.211Z,96.60
2018-03-31T00:50:04.763Z,97.00
2018-03-31T00:52:32.536Z,97.00
2018-03-31T00:55:00.300Z,97.10
2018-03-31T00:57:28.064Z,97.30
2018-03-31T00:59:55.833Z,97.20
2018-03-31T01:02:23.588Z,97.30
2018-03-31T01:04:51.359Z,97.50
2018-03-31T01:07:19.130Z,97.40
2018-03-31T01:09:47.651Z,97.70
2018-03-31T01:12:15.435Z,97.50
2018-03-31T01:14:43.199Z,97.50
2018-03-31T01:17:10.972Z,97.70
2018-03-31T01:19:38.747Z,97.70
2018-03-31T01:22:06.516Z,97.70
2018-03-31T01:24:35.177Z,97.70
2018-03-31T01:27:02.959Z,97.60
2018-03-31T01:29:30.765Z,97.60
2018-03-31T01:31:59.299Z,97.80
2018-03-31T01:34:27.131Z,97.80
2018-03-31T01:36:54.894Z,97.80
2018-03-31T01:39:22.666Z,98.00
2018-03-31T01:41:50.423Z,98.00
2018-03-31T01:44:18.199Z,98.00
2018-03-31T01:46:45.963Z,98.00
2018-03-31T01:49:13.723Z,98.10
2018-03-31T01:51:41.483Z,98.10
2018-03-31T01:54:09.251Z,98.10
2018-03-31T01:56:37.019Z,98.10
2018-03-31T01:59:04.799Z,98.00
2018-03-31T02:01:32.551Z,98.10
2018-03-31T02:04:00.309Z,98.20
2018-03-31T02:06:28.123Z,98.40
2018-03-31T02:08:55.859Z,98.50
2018-03-31T02:11:23.635Z,98.70
2018-03-31T02:13:51.470Z,98.70
2018-03-31T02:16:19.231Z,98.40
2018-03-31T02:18:46.994Z,98.10
2018-03-31T02:21:14.752Z,98.00
2018-03-31T02:23:42.515Z,98.10
2018-03-31T02:26:10.283Z,98.20
2018-03-31T02:28:38.055Z,98.20
2018-03-31T02:31:05.810Z,98.30
2018-03-31T02:33:33.573Z,98.30
2018-03-31T02:36:01.360Z,98.50
2018-03-31T02:38:29.128Z,98.70
2018-03-31T02:40:56.892Z,98.70
2018-03-31T02:43:24.674Z,98.50
2018-03-31T02:45:52.450Z,98.60
2018-03-31T02:48:20.210Z,98.60
2018-03-31T02:50:47.973Z,98.80
2018-03-31T02:53:15.766Z,98.90
2018-03-31T02:55:44.295Z,99.20
2018-03-31T02:58:12.062Z,99.20
2018-03-31T03:00:39.837Z,99.40
2018-03-31T03:03:07.597Z,99.70
2018-03-31T03:05:35.374Z,99.80
2018-03-31T03:08:04.636Z,99.90
2018-03-31T03:10:32.393Z,99.90
2018-03-31T03:13:00.165Z,99.90
2018-03-31T03:15:27.924Z,99.90
2018-03-31T03:17:55.684Z,99.90
2018-03-31T03:20:24.236Z,99.90
2018-03-31T03:22:52.758Z,99.90
2018-03-31T03:25:20.525Z,99.90
2018-03-31T03:27:48.280Z,99.90
2018-03-31T03:30:16.047Z,99.90
2018-03-31T03:32:43.804Z,99.90
2018-03-31T03:35:11.560Z,99.90
2018-03-31T03:37:39.332Z,99.90
2018-03-31T03:40:07.124Z,99.90
2018-03-31T03:42:34.880Z,99.90
2018-03-31T03:45:02.640Z,99.90
2018-03-31T03:47:30.408Z,99.90
2018-03-31T03:49:58.166Z,99.90
2018-03-31T03:52:25.943Z,99.90
2018-03-31T03:54:53.704Z,99.90
2018-03-31T03:57:22.603Z,99.90
2018-03-31T03:59:50.359Z,99.90
2018-03-31T04:02:18.194Z,99.90
2018-03-31T04:04:45.951Z,99.90
2018-03-31T04:07:14.495Z,99.90
2018-03-31T04:09:43.770Z,99.90
2018-03-31T04:12:11.535Z,99.90
2018-03-31T04:14:39.302Z,99.90
2018-03-31T04:17:07.070Z,99.90
2018-03-31T04:19:34.854Z,99.90
2018-03-31T04:22:02.636Z,99.90
2018-03-31T04:24:30.399Z,99.90
2018-03-31T04:26:58.171Z,99.90
2018-03-31T04:29:26.732Z,99.90
2018-03-31T04:31:54.569Z,99.90
2018-03-31T04:34:22.323Z,99.90
2018-03-31T04:36:50.127Z,99.90
2018-03-31T04:39:17.896Z,99.90
2018-03-31T04:41:45.659Z,99.90
2018-03-31T04:44:13.426Z,99.90
2018-03-31T04:46:41.185Z,99.90
2018-03-31T04:49:09.033Z,99.90
2018-03-31T04:51:36.894Z,99.90
2018-03-31T04:54:04.656Z,99.90
2018-03-31T04:56:32.496Z,99.90
2018-03-31T04:59:00.249Z,99.90
2018-03-31T05:01:28.776Z,99.90
2018-03-31T05:03:56.544Z,99.90
2018-03-31T05:06:24.312Z,99.90
2018-03-31T05:08:52.083Z,99.90
2018-03-31T05:11:19.839Z,99.90
2018-03-31T05:13:47.621Z,99.90
2018-03-31T05:16:16.264Z,99.90
2018-03-31T05:18:44.039Z,99.90
2018-03-31T05:21:11.807Z,99.90
2018-03-31T05:23:39.563Z,99.90
2018-03-31T05:26:07.338Z,99.90
2018-03-31T05:28:35.125Z,99.90
2018-03-31T05:31:03.023Z,99.90
2018-03-31T05:33:31.571Z,99.90
2018-03-31T05:36:00.844Z,99.90
2018-03-31T05:38:28.603Z,99.90
2018-03-31T05:40:56.397Z,99.90
2018-03-31T05:43:24.150Z,99.90
2018-03-31T05:45:51.920Z,99.90
2018-03-31T05:48:19.695Z,99.90
2018-03-31T05:50:47.538Z,99.90
2018-03-31T05:53:15.289Z,99.90
2018-03-31T05:55:43.081Z,99.90
2018-03-31T05:58:10.852Z,99.90
2018-03-31T06:00:38.612Z,99.90
2018-03-31T06:03:06.384Z,99.90
2018-03-31T06:05:34.168Z,99.90
2018-03-31T06:08:02.693Z,99.90
2018-03-31T06:10:30.468Z,99.90
2018-03-31T06:12:58.235Z,99.90
2018-03-31T06:15:26.034Z,99.90
2018-03-31T06:17:53.816Z,99.90
2018-03-31T06:20:21.596Z,99.90
2018-03-31T06:22:49.372Z,99.90
2018-03-31T06:25:17.154Z,99.90
2018-03-31T06:27:44.911Z,99.90
2018-03-31T06:30:12.675Z,99.90
2018-03-31T06:32:40.463Z,99.90
2018-03-31T06:35:08.239Z,99.90
2018-03-31T06:37:36.015Z,99.90
2018-03-31T06:40:03.793Z,99.90
2018-03-31T06:42:32.345Z,99.90
2018-03-31T06:45:00.110Z,99.90
2018-03-31T06:47:27.886Z,99.80
2018-03-31T06:49:55.670Z,99.80
2018-03-31T06:52:24.228Z,99.60
2018-03-31T06:54:52.030Z,99.60
2018-03-31T06:57:19.826Z,99.50
2018-03-31T06:59:47.596Z,99.30
2018-03-31T07:02:15.415Z,99.80
2018-03-31T07:04:43.965Z,99.60
2018-03-31T07:07:11.732Z,99.60
2018-03-31T07:09:39.501Z,99.30
2018-03-31T07:12:07.262Z,98.80
2018-03-31T07:14:35.806Z,98.80
2018-03-31T07:17:03.587Z,98.80
2018-03-31T07:19:31.366Z,98.80
2018-03-31T07:21:59.133Z,98.10
2018-03-31T07:24:26.949Z,98.40
2018-03-31T07:26:54.718Z,98.10
2018-03-31T07:29:22.480Z,97.90
2018-03-31T07:31:50.256Z,97.60
2018-03-31T07:34:18.023Z,97.60
2018-03-31T07:36:45.793Z,97.50
2018-03-31T07:39:13.580Z,96.90
2018-03-31T07:41:41.361Z,96.20
2018-03-31T07:44:09.130Z,96.20
2018-03-31T07:46:36.906Z,96.20
2018-03-31T07:49:05.541Z,94.90
2018-03-31T07:51:33.344Z,94.90
2018-03-31T07:54:01.117Z,94.40
2018-03-31T07:56:29.653Z,94.50
2018-03-31T07:58:57.424Z,94.50
2018-03-31T08:01:25.188Z,93.80
2018-03-31T08:03:53.004Z,93.40
2018-03-31T08:06:21.634Z,93.40
2018-03-31T08:08:49.499Z,93.30
2018-03-31T08:11:17.276Z,93.00
2018-03-31T08:13:45.053Z,93.50
2018-03-31T08:16:12.819Z,93.30
2018-03-31T08:18:40.659Z,93.50
2018-03-31T08:21:08.432Z,92.60
2018-03-31T08:23:36.226Z,92.30
2018-03-31T08:26:05.590Z,92.40
2018-03-31T08:28:33.348Z,92.40
2018-03-31T08:31:01.109Z,91.20
2018-03-31T08:33:28.910Z,90.30
2018-03-31T08:35:57.439Z,89.30
2018-03-31T08:38:25.211Z,89.10
2018-03-31T08:40:52.977Z,88.40
2018-03-31T08:43:20.757Z,88.30
2018-03-31T08:45:48.538Z,88.20
2018-03-31T08:48:16.323Z,82.80
2018-03-31T08:50:44.120Z,85.00
2018-03-31T08:53:12.758Z,86.50
2018-03-31T08:55:40.539Z,86.40
2018-03-31T08:58:08.548Z,87.50
2018-03-31T09:00:36.399Z,89.00
2018-03-31T09:03:04.924Z,87.40
2018-03-31T09:05:32.702Z,87.30
2018-03-31T09:08:00.639Z,86.00
2018-03-31T09:10:28.453Z,86.10
2018-03-31T09:12:56.387Z,85.60
2018-03-31T09:15:24.225Z,87.30
2018-03-31T09:17:51.996Z,83.40
2018-03-31T09:20:19.791Z,83.20
2018-03-31T09:22:47.555Z,84.30
2018-03-31T09:25:15.479Z,82.50
2018-03-31T09:27:43.250Z,81.90
2018-03-31T09:30:11.034Z,80.40
2018-03-31T09:32:38.806Z,76.60
2018-03-31T09:35:06.587Z,76.30
2018-03-31T09:37:34.417Z,77.70
2018-03-31T09:40:02.218Z,77.00
2018-03-31T09:42:30.810Z,80.20
2018-03-31T09:44:58.586Z,79.40
2018-03-31T09:47:26.369Z,80.40
2018-03-31T09:49:54.939Z,78.50
2018-03-31T09:52:23.480Z,77.50
2018-03-31T09:54:51.293Z,77.50
2018-03-31T09:57:19.865Z,75.60
2018-03-31T09:59:47.672Z,75.30
2018-03-31T10:02:15.568Z,71.70
2018-03-31T10:04:43.340Z,72.40
2018-03-31T10:07:11.129Z,70.60
2018-03-31T10:09:38.892Z,69.30
2018-03-31T10:12:07.443Z,70.30
2018-03-31T10:14:35.238Z,70.20
2018-03-31T10:17:03.795Z,68.60
2018-03-31T10:19:31.594Z,68.50
2018-03-31T10:22:00.179Z,72.20
2018-03-31T10:24:27.982Z,72.10
2018-03-31T10:26:55.779Z,67.40
2018-03-31T10:29:23.562Z,67.60
2018-03-31T10:31:52.131Z,70.50
2018-03-31T10:34:19.941Z,70.50
2018-03-31T10:36:47.901Z,71.70
2018-03-31T10:39:16.436Z,75.20
2018-03-31T10:41:44.551Z,75.10
2018-03-31T10:44:12.363Z,73.00
2018-03-31T10:46:40.231Z,72.50
2018-03-31T10:49:08.053Z,70.00
2018-03-31T10:51:36.610Z,72.60
2018-03-31T10:54:04.374Z,72.60
2018-03-31T10:56:32.936Z,67.20
2018-03-31T10:59:00.722Z,67.20
2018-03-31T11:01:28.512Z,66.60
2018-03-31T11:03:56.325Z,63.50
2018-03-31T11:06:24.168Z,63.70
2018-03-31T11:08:52.122Z,63.20
2018-03-31T11:11:19.912Z,65.00
2018-03-31T11:13:47.748Z,62.50
2018-03-31T11:16:15.517Z,61.00
2018-03-31T11:18:43.285Z,62.80
2018-03-31T11:21:11.175Z,62.20
2018-03-31T11:23:38.950Z,59.30
2018-03-31T11:26:06.714Z,56.30
2018-03-31T11:28:34.487Z,55.50
2018-03-31T11:31:02.286Z,52.30
2018-03-31T11:33:30.858Z,47.50
2018-03-31T11:35:59.419Z,53.60
2018-03-31T11:38:27.213Z,53.50
2018-03-31T11:40:55.759Z,53.10
2018-03-31T11:43:23.525Z,53.00
2018-03-31T11:45:52.425Z,50.60
2018-03-31T11:48:20.201Z,52.40
2018-03-31T11:50:48.796Z,53.20
2018-03-31T11:53:16.592Z,53.20
2018-03-31T11:55:44.383Z,51.40
2018-03-31T11:58:12.159Z,54.30
2018-03-31T12:00:39.974Z,52.90
2018-03-31T12:03:07.739Z,52.10
2018-03-31T12:05:35.637Z,50.20
2018-03-31T12:08:03.420Z,50.10
2018-03-31T12:10:31.257Z,48.80
2018-03-31T12:12:59.027Z,49.90
2018-03-31T12:15:26.825Z,47.00
2018-03-31T12:17:54.601Z,44.80
2018-03-31T12:20:23.160Z,45.50
2018-03-31T12:22:50.954Z,45.50
2018-03-31T12:25:18.758Z,50.80
2018-03-31T12:27:46.547Z,50.00
2018-03-31T12:30:14.405Z,47.10
2018-03-31T12:32:42.193Z,44.80
2018-03-31T12:35:09.992Z,42.80
2018-03-31T12:37:37.786Z,44.20
2018-03-31T12:40:06.349Z,41.00
2018-03-31T12:42:34.144Z,40.90
2018-03-31T12:45:02.631Z,43.30
2018-03-31T12:47:30.496Z,45.80
2018-03-31T12:49:58.314Z,46.70
2018-03-31T12:52:26.108Z,44.20
2018-03-31T12:54:53.898Z,41.30
2018-03-31T12:57:21.695Z,41.40
2018-03-31T12:59:49.472Z,38.40
2018-03-31T13:02:18.102Z,39.60
2018-03-31T13:04:45.968Z,39.40
2018-03-31T13:07:13.772Z,38.60
2018-03-31T13:09:42.326Z,39.00
2018-03-31T13:12:10.715Z,38.90
2018-03-31T13:14:38.579Z,37.10
2018-03-31T13:17:06.436Z,37.40
2018-03-31T13:19:34.284Z,37.10
2018-03-31T13:22:02.154Z,36.50
2018-03-31T13:24:30.031Z,37.60
2018-03-31T13:26:57.806Z,37.80
2018-03-31T13:29:25.632Z,38.80
2018-03-31T13:31:54.170Z,40.10
2018-03-31T13:34:22.007Z,40.00
2018-03-31T13:36:49.782Z,38.30
2018-03-31T13:39:17.742Z,39.10
2018-03-31T13:41:45.630Z,40.80
2018-03-31T13:44:14.400Z,38.90
2018-03-31T13:46:42.178Z,36.10
2018-03-31T13:49:10.006Z,35.40
2018-03-31T13:51:37.788Z,35.40
2018-03-31T13:54:07.082Z,35.30
2018-03-31T13:56:34.870Z,34.80
2018-03-31T13:59:03.425Z,36.20
2018-03-31T14:01:31.217Z,36.20
2018-03-31T14:03:58.998Z,35.80
2018-03-31T14:06:26.833Z,34.70
2018-03-31T14:08:54.620Z,35.50
2018-03-31T14:11:22.398Z,35.80
2018-03-31T14:13:51.825Z,37.10
2018-03-31T14:16:20.401Z,38.90
2018-03-31T14:18:48.981Z,40.70
2018-03-31T14:21:17.530Z,43.10
2018-03-31T14:23:45.380Z,43.20
2018-03-31T14:26:13.198Z,44.60
2018-03-31T14:28:41.742Z,44.90
2018-03-31T14:31:09.527Z,44.90
2018-03-31T14:33:37.326Z,45.80
2018-03-31T14:36:05.129Z,46.00
2018-03-31T14:38:32.912Z,44.40
2018-03-31T14:41:00.934Z,44.00
2018-03-31T14:43:28.755Z,43.90
2018-03-31T14:45:57.304Z,43.50
2018-03-31T14:48:25.108Z,43.00
2018-03-31T14:50:53.068Z,42.90
2018-03-31T14:53:20.842Z,41.00
2018-03-31T14:55:48.602Z,42.00
2018-03-31T14:58:16.393Z,40.00
2018-03-31T15:00:44.212Z,40.30
2018-03-31T15:03:12.013Z,41.40
2018-03-31T15:05:39.794Z,40.50
2018-03-31T15:08:07.588Z,42.50
2018-03-31T15:10:35.520Z,42.50
2018-03-31T15:13:03.265Z,41.90
2018-03-31T15:15:31.861Z,41.00
2018-03-31T15:18:00.413Z,41.40
2018-03-31T15:20:28.249Z,41.40
2018-03-31T15:22:56.018Z,41.60
2018-03-31T15:25:23.811Z,41.80
2018-03-31T15:27:51.575Z,41.90
2018-03-31T15:30:19.366Z,42.60
2018-03-31T15:32:47.910Z,44.60
2018-03-31T15:35:16.736Z,44.70
2018-03-31T15:37:45.368Z,44.30
2018-03-31T15:40:13.145Z,44.30
2018-03-31T15:42:40.940Z,45.50
2018-03-31T15:45:08.750Z,44.50
2018-03-31T15:47:36.532Z,45.20
2018-03-31T15:50:04.330Z,46.30
2018-03-31T15:52:32.894Z,47.20
2018-03-31T15:55:01.382Z,46.80
2018-03-31T15:57:29.150Z,46.60
2018-03-31T15:59:56.989Z,47.10
2018-03-31T16:02:24.859Z,47.00
2018-03-31T16:04:52.732Z,46.00
2018-03-31T16:07:20.509Z,47.30
2018-03-31T16:09:48.279Z,46.70
2018-03-31T16:12:16.051Z,47.30
2018-03-31T16:14:44.603Z,47.30
2018-03-31T16:17:12.382Z,47.20
2018-03-31T16:19:41.014Z,49.00
2018-03-31T16:22:08.824Z,49.20
2018-03-31T16:24:36.588Z,49.70
2018-03-31T16:27:04.394Z,50.80
2018-03-31T16:29:32.168Z,51.20
2018-03-31T16:31:59.946Z,52.00
2018-03-31T16:34:27.762Z,52.40
2018-03-31T16:36:55.554Z,52.60
2018-03-31T16:39:24.156Z,53.20
2018-03-31T16:41:51.961Z,53.20
2018-03-31T16:44:19.791Z,53.90
2018-03-31T16:46:47.601Z,54.70
2018-03-31T16:49:15.373Z,55.00
2018-03-31T16:51:43.213Z,55.00
2018-03-31T16:54:11.012Z,55.00
2018-03-31T16:56:39.547Z,55.40
2018-03-31T16:59:07.345Z,55.30
2018-03-31T17:01:35.112Z,56.20
2018-03-31T17:04:02.961Z,55.90
2018-03-31T17:06:31.535Z,55.80
2018-03-31T17:08:59.379Z,55.80
2018-03-31T17:11:27.608Z,56.10
2018-03-31T17:13:55.391Z,56.60
2018-03-31T17:16:23.944Z,56.70
2018-03-31T17:18:51.729Z,56.70
2018-03-31T17:21:20.266Z,58.10
2018-03-31T17:23:48.037Z,58.10
2018-03-31T17:26:15.902Z,58.40
2018-03-31T17:28:43.673Z,58.80
2018-03-31T17:31:11.451Z,59.00
2018-03-31T17:33:39.214Z,59.60
2018-03-31T17:36:06.994Z,60.40
2018-03-31T17:38:35.570Z,61.80
2018-03-31T17:41:03.326Z,61.70
2018-03-31T17:43:31.114Z,62.00
2018-03-31T17:45:59.655Z,62.50
2018-03-31T17:48:27.429Z,62.50
2018-03-31T17:50:55.221Z,63.70
2018-03-31T17:53:22.999Z,65.90
2018-03-31T17:55:51.532Z,67.70
2018-03-31T17:58:19.320Z,67.70
2018-03-31T18:00:47.780Z,67.10
2018-03-31T18:03:15.623Z,67.50
2018-03-31T18:05:43.400Z,67.80
2018-03-31T18:08:11.227Z,68.80
2018-03-31T18:10:39.762Z,69.80
2018-03-31T18:13:07.525Z,69.80
2018-03-31T18:15:35.323Z,69.60
2018-03-31T18:18:03.850Z,74.80
2018-03-31T18:20:31.621Z,73.80
2018-03-31T18:22:59.389Z,74.70
2018-03-31T18:25:27.146Z,75.60
2018-03-31T18:27:54.916Z,76.30
2018-03-31T18:30:22.794Z,76.20
2018-03-31T18:32:50.560Z,76.70
2018-03-31T18:35:18.314Z,74.10
2018-03-31T18:37:46.079Z,75.90
2018-03-31T18:40:13.863Z,75.60
2018-03-31T18:42:41.626Z,78.20
2018-03-31T18:45:11.008Z,80.40
2018-03-31T18:47:38.812Z,80.30
2018-03-31T18:50:06.596Z,80.90
2018-03-31T18:52:35.330Z,80.30
2018-03-31T18:55:03.110Z,80.30
2018-03-31T18:57:30.891Z,79.40
2018-03-31T18:59:59.435Z,80.40
2018-03-31T19:02:27.219Z,80.20
2018-03-31T19:04:55.012Z,79.80
2018-03-31T19:07:23.722Z,81.40
2018-03-31T19:09:52.286Z,81.60
2018-03-31T19:12:20.839Z,82.30
2018-03-31T19:14:48.627Z,82.30
2018-03-31T19:17:17.240Z,83.30
2018-03-31T19:19:45.020Z,83.20
2018-03-31T19:22:12.822Z,82.80
2018-03-31T19:24:47.244Z,84.40
2018-03-31T19:27:15.059Z,84.40
2018-03-31T19:29:43.601Z,84.80
2018-03-31T19:32:11.358Z,84.80
2018-03-31T19:34:39.123Z,84.90
2018-03-31T19:37:06.891Z,84.40
2018-03-31T19:39:50.551Z,83.70
2018-03-31T19:42:18.361Z,85.60
2018-03-31T19:44:46.150Z,84.60
2018-03-31T19:47:13.911Z,85.30
2018-03-31T19:49:41.682Z,85.50
2018-03-31T19:52:10.988Z,85.70
2018-03-31T19:54:38.746Z,85.60
2018-03-31T19:57:06.520Z,86.40
2018-03-31T19:59:35.049Z,86.30
2018-03-31T20:02:02.815Z,86.20
2018-03-31T20:04:30.630Z,85.80
2018-03-31T20:06:59.196Z,87.10
2018-03-31T20:09:26.971Z,87.00
2018-03-31T20:11:54.755Z,86.80
2018-03-31T20:14:23.319Z,87.60
2018-03-31T20:16:51.874Z,87.70
2018-03-31T20:19:19.651Z,87.80
2018-03-31T20:21:47.435Z,87.50
2018-03-31T20:24:15.991Z,88.00
2018-03-31T20:26:43.867Z,87.80
2018-03-31T20:29:12.160Z,87.10
2018-03-31T20:31:39.935Z,87.70
2018-03-31T20:34:08.506Z,87.50
2018-03-31T20:36:36.495Z,87.50
2018-03-31T20:39:04.291Z,87.50
2018-03-31T20:41:32.128Z,87.00
2018-03-31T20:44:00.683Z,90.10
2018-03-31T20:46:28.474Z,90.10
2018-03-31T20:48:57.023Z,90.90
2018-03-31T20:51:24.815Z,90.90
2018-03-31T20:53:53.377Z,91.40
2018-03-31T20:56:21.222Z,91.30
2018-03-31T20:58:48.990Z,91.40
2018-03-31T21:01:16.957Z,91.40
2018-03-31T21:03:44.731Z,91.50
2018-03-31T21:06:12.507Z,91.70
2018-03-31T21:08:40.445Z,91.90
2018-03-31T21:11:08.241Z,91.90
2018-03-31T21:13:36.030Z,92.00
2018-03-31T21:16:03.822Z,92.00
2018-03-31T21:18:31.592Z,92.00
2018-03-31T21:20:59.465Z,92.20
2018-03-31T21:23:27.239Z,92.30
2018-03-31T21:25:55.055Z,92.20
2018-03-31T21:28:23.797Z,92.60
2018-03-31T21:30:51.586Z,92.60
2018-03-31T21:33:19.381Z,92.60
2018-03-31T21:35:47.933Z,92.60
2018-03-31T21:38:16.520Z,92.70
2018-03-31T21:40:45.095Z,92.80
2018-03-31T21:43:12.871Z,92.70
2018-03-31T21:45:41.429Z,93.10
2018-03-31T21:48:09.217Z,92.80
2018-03-31T21:50:37.774Z,92.70
2018-03-31T21:53:05.560Z,92.70
2018-03-31T21:55:33.331Z,92.70
2018-03-31T21:58:01.897Z,92.90
2018-03-31T22:00:29.691Z,92.80
2018-03-31T22:02:58.242Z,93.20
2018-03-31T22:05:26.027Z,93.20
2018-03-31T22:07:54.564Z,93.00
2018-03-31T22:10:22.340Z,93.00
2018-03-31T22:12:50.147Z,93.00
2018-03-31T22:15:24.393Z,93.20
2018-03-31T22:17:52.450Z,93.20
2018-03-31T22:20:20.222Z,93.20
2018-03-31T22:22:47.995Z,93.10
2018-03-31T22:25:15.784Z,93.20
2018-03-31T22:27:43.560Z,93.30
2018-03-31T22:30:11.330Z,93.20
2018-03-31T22:32:39.133Z,93.50
2018-03-31T22:35:06.901Z,93.70
2018-03-31T22:37:34.685Z,93.80
2018-03-31T22:40:02.458Z,93.70
2018-03-31T22:42:30.334Z,93.70
2018-03-31T22:44:58.125Z,93.90
2018-03-31T22:47:25.909Z,94.10
2018-03-31T22:49:54.487Z,94.10
2018-03-31T22:52:23.047Z,94.10
2018-03-31T22:54:50.819Z,94.00
2018-03-31T22:57:18.593Z,94.10
2018-03-31T22:59:47.182Z,94.60
2018-03-31T23:02:14.968Z,94.60
2018-03-31T23:04:42.742Z,94.70
2018-03-31T23:07:10.517Z,94.60
2018-03-31T23:09:38.298Z,94.70
2018-03-31T23:12:06.088Z,94.70
2018-03-31T23:14:35.363Z,94.70
2018-03-31T23:17:03.163Z,94.70
2018-03-31T23:19:31.711Z,94.80
2018-03-31T23:21:59.491Z,94.70
2018-03-31T23:24:28.164Z,94.10
2018-03-31T23:26:55.931Z,94.10
2018-03-31T23:29:23.971Z,94.40
2018-03-31T23:31:51.738Z,94.90
2018-03-31T23:34:19.523Z,95.10
2018-03-31T23:36:47.313Z,95.20
2018-03-31T23:39:15.092Z,95.30
2018-03-31T23:41:43.638Z,95.50
2018-03-31T23:44:11.425Z,95.40
2018-03-31T23:46:39.224Z,95.50
2018-03-31T23:49:07.001Z,95.40
2018-03-31T23:51:34.778Z,95.20
2018-03-31T23:54:02.672Z,95.10
2018-03-31T23:56:30.468Z,95.30
2018-03-31T23:58:58.274Z,95.50
